Terminal Aerodrome Forecast
Issued by NWS Jackson, KY

Home | Current Version | Previous Version | Text Only | Print | Product List | Glossary Off
Versions: 1 2 3 4 5 6 7 8 9 10 11 12 13 14 15 16 17 18 19 20 21 22 23 24

041
FTUS43 KJKL 120525
TAFLOZ
TAF
KLOZ 120525Z 1206/1306 VRB03KT P6SM OVC070
     FM121400 VRB04KT 4SM -SHSN BR SCT008 BKN015 OVC030
     FM121800 29010KT P6SM SCT010 OVC030=

USA.gov is the U.S. government's official web portal to all federal, state and local government web resources and services.